sensor_id;sensor_type;location;lat;lon;timestamp;pressure;altitude;pressure_sealevel;temperature;humidity
19594;BME280;9944;48.240;16.478;2024-01-25T00:02:32;100331.63;;;8.78;61.14
19594;BME280;9944;48.240;16.478;2024-01-25T00:06:55;100317.53;;;8.74;61.28
19594;BME280;9944;48.240;16.478;2024-01-25T00:11:19;100314.91;;;8.74;61.73
19594;BME280;9944;48.240;16.478;2024-01-25T00:15:44;100320.19;;;8.74;61.32
19594;BME280;9944;48.240;16.478;2024-01-25T00:20:09;100299.09;;;8.72;61.88
19594;BME280;9944;48.240;16.478;2024-01-25T00:24:33;100298.22;;;8.70;61.50
19594;BME280;9944;48.240;16.478;2024-01-25T00:28:57;100310.50;;;8.70;61.52
19594;BME280;9944;48.240;16.478;2024-01-25T00:33:22;100328.91;;;8.70;61.51
19594;BME280;9944;48.240;16.478;2024-01-25T00:37:46;100320.13;;;8.68;61.80
19594;BME280;9944;48.240;16.478;2024-01-25T00:42:12;100321.88;;;8.69;61.72
19594;BME280;9944;48.240;16.478;2024-01-25T00:46:37;100326.22;;;8.65;61.47
19594;BME280;9944;48.240;16.478;2024-01-25T00:51:07;100317.47;;;8.66;61.10
19594;BME280;9944;48.240;16.478;2024-01-25T00:55:32;100322.69;;;8.63;61.72
19594;BME280;9944;48.240;16.478;2024-01-25T00:59:56;100315.66;;;8.62;61.46
19594;BME280;9944;48.240;16.478;2024-01-25T01:04:20;100327.03;;;8.60;61.90
19594;BME280;9944;48.240;16.478;2024-01-25T01:08:46;100327.84;;;8.57;61.84
19594;BME280;9944;48.240;16.478;2024-01-25T01:13:09;100328.75;;;8.56;62.03
19594;BME280;9944;48.240;16.478;2024-01-25T01:17:32;100325.25;;;8.55;61.97
19594;BME280;9944;48.240;16.478;2024-01-25T01:21:56;100332.19;;;8.50;62.20
19594;BME280;9944;48.240;16.478;2024-01-25T01:26:21;100338.28;;;8.49;62.15
19594;BME280;9944;48.240;16.478;2024-01-25T01:30:45;100329.53;;;8.49;61.80
19594;BME280;9944;48.240;16.478;2024-01-25T01:35:08;100326.00;;;8.48;61.65
19594;BME280;9944;48.240;16.478;2024-01-25T01:39:33;100333.00;;;8.48;61.56
19594;BME280;9944;48.240;16.478;2024-01-25T01:43:58;100331.19;;;8.42;62.08
19594;BME280;9944;48.240;16.478;2024-01-25T01:48:22;100342.56;;;8.41;61.75
19594;BME280;9944;48.240;16.478;2024-01-25T01:52:46;100333.72;;;8.36;61.70
19594;BME280;9944;48.240;16.478;2024-01-25T01:57:12;100328.44;;;8.33;61.98
19594;BME280;9944;48.240;16.478;2024-01-25T02:01:36;100333.78;;;8.39;60.93
19594;BME280;9944;48.240;16.478;2024-01-25T02:06:01;100331.97;;;8.35;61.39
19594;BME280;9944;48.240;16.478;2024-01-25T02:10:25;100324.06;;;8.33;61.29
19594;BME280;9944;48.240;16.478;2024-01-25T02:14:49;100320.53;;;8.34;61.16
19594;BME280;9944;48.240;16.478;2024-01-25T02:19:13;100313.53;;;8.33;60.77
19594;BME280;9944;48.240;16.478;2024-01-25T02:23:39;100312.56;;;8.30;61.24
19594;BME280;9944;48.240;16.478;2024-01-25T02:28:03;100317.75;;;8.25;61.34
19594;BME280;9944;48.240;16.478;2024-01-25T02:32:27;100317.72;;;8.24;61.44
19594;BME280;9944;48.240;16.478;2024-01-25T02:36:50;100305.47;;;8.26;61.39
19594;BME280;9944;48.240;16.478;2024-01-25T02:41:15;100312.44;;;8.21;61.30
19594;BME280;9944;48.240;16.478;2024-01-25T02:45:39;100289.69;;;8.23;61.46
19594;BME280;9944;48.240;16.478;2024-01-25T02:50:03;100301.06;;;8.22;61.48
19594;BME280;9944;48.240;16.478;2024-01-25T02:54:27;100294.97;;;8.24;61.08
19594;BME280;9944;48.240;16.478;2024-01-25T02:58:53;100292.28;;;8.21;61.77
19594;BME280;9944;48.240;16.478;2024-01-25T03:03:16;100306.25;;;8.17;61.53
19594;BME280;9944;48.240;16.478;2024-01-25T03:07:40;100297.47;;;8.16;61.21
19594;BME280;9944;48.240;16.478;2024-01-25T03:12:04;100305.38;;;8.16;61.48
19594;BME280;9944;48.240;16.478;2024-01-25T03:16:29;100315.00;;;8.16;61.37
19594;BME280;9944;48.240;16.478;2024-01-25T03:20:54;100289.53;;;8.13;61.44
19594;BME280;9944;48.240;16.478;2024-01-25T03:25:18;100300.91;;;8.11;61.07
19594;BME280;9944;48.240;16.478;2024-01-25T03:29:41;100299.06;;;8.07;60.59
19594;BME280;9944;48.240;16.478;2024-01-25T03:34:07;100290.34;;;8.08;60.81
19594;BME280;9944;48.240;16.478;2024-01-25T03:38:31;100288.56;;;8.05;60.67
19594;BME280;9944;48.240;16.478;2024-01-25T03:42:54;100291.19;;;8.05;60.36
19594;BME280;9944;48.240;16.478;2024-01-25T03:47:38;100283.28;;;8.04;60.91
19594;BME280;9944;48.240;16.478;2024-01-25T03:52:03;100278.00;;;8.02;60.91
19594;BME280;9944;48.240;16.478;2024-01-25T03:56:27;100269.09;;;7.94;61.20
19594;BME280;9944;48.240;16.478;2024-01-25T04:00:51;100273.53;;;7.95;61.40
19594;BME280;9944;48.240;16.478;2024-01-25T04:05:15;100263.84;;;7.94;61.46
19594;BME280;9944;48.240;16.478;2024-01-25T04:09:40;100275.19;;;7.90;61.90
19594;BME280;9944;48.240;16.478;2024-01-25T04:14:04;100288.31;;;7.88;62.25
19594;BME280;9944;48.240;16.478;2024-01-25T04:18:28;100289.19;;;7.89;62.38
19594;BME280;9944;48.240;16.478;2024-01-25T04:22:52;100297.94;;;7.88;62.39
19594;BME280;9944;48.240;16.478;2024-01-25T04:27:17;100283.91;;;7.87;62.51
19594;BME280;9944;48.240;16.478;2024-01-25T04:31:42;100288.28;;;7.87;62.87
19594;BME280;9944;48.240;16.478;2024-01-25T04:36:07;100288.19;;;7.82;62.98
19594;BME280;9944;48.240;16.478;2024-01-25T04:40:30;100290.81;;;7.80;63.04
19594;BME280;9944;48.240;16.478;2024-01-25T04:44:56;100289.88;;;7.77;63.01
19594;BME280;9944;48.240;16.478;2024-01-25T04:49:19;100278.50;;;7.76;62.71
19594;BME280;9944;48.240;16.478;2024-01-25T04:53:43;100301.25;;;7.74;63.21
19594;BME280;9944;48.240;16.478;2024-01-25T04:58:07;100290.72;;;7.74;62.98
19594;BME280;9944;48.240;16.478;2024-01-25T05:02:32;100282.84;;;7.74;63.27
19594;BME280;9944;48.240;16.478;2024-01-25T05:06:56;100284.59;;;7.74;63.17
19594;BME280;9944;48.240;16.478;2024-01-25T05:11:20;100296.81;;;7.72;63.47
19594;BME280;9944;48.240;16.478;2024-01-25T05:15:44;100296.78;;;7.69;63.32
19594;BME280;9944;48.240;16.478;2024-01-25T05:20:10;100291.53;;;7.69;63.32
19594;BME280;9944;48.240;16.478;2024-01-25T05:24:35;100292.41;;;7.69;63.81
19594;BME280;9944;48.240;16.478;2024-01-25T05:28:59;100274.91;;;7.71;63.22
19594;BME280;9944;48.240;16.478;2024-01-25T05:33:23;100270.50;;;7.70;63.39
19594;BME280;9944;48.240;16.478;2024-01-25T05:37:48;100266.13;;;7.69;63.37
19594;BME280;9944;48.240;16.478;2024-01-25T05:42:11;100279.25;;;7.69;63.29
19594;BME280;9944;48.240;16.478;2024-01-25T05:46:35;100267.84;;;7.67;63.28
19594;BME280;9944;48.240;16.478;2024-01-25T05:50:58;100283.59;;;7.67;63.61
19594;BME280;9944;48.240;16.478;2024-01-25T05:55:24;100257.31;;;7.66;63.50
19594;BME280;9944;48.240;16.478;2024-01-25T05:59:47;100280.03;;;7.62;63.58
19594;BME280;9944;48.240;16.478;2024-01-25T06:04:11;100289.63;;;7.60;63.81
19594;BME280;9944;48.240;16.478;2024-01-25T06:08:34;100300.13;;;7.58;63.90
19594;BME280;9944;48.240;16.478;2024-01-25T06:13:00;100302.72;;;7.57;63.77
19594;BME280;9944;48.240;16.478;2024-01-25T06:17:24;100306.09;;;7.50;63.84
19594;BME280;9944;48.240;16.478;2024-01-25T06:21:48;100316.53;;;7.47;63.87
19594;BME280;9944;48.240;16.478;2024-01-25T06:26:12;100311.22;;;7.43;63.89
19594;BME280;9944;48.240;16.478;2024-01-25T06:30:37;100323.47;;;7.41;64.04
19594;BME280;9944;48.240;16.478;2024-01-25T06:35:01;100332.25;;;7.43;64.03
19594;BME280;9944;48.240;16.478;2024-01-25T06:39:25;100347.94;;;7.40;63.56
19594;BME280;9944;48.240;16.478;2024-01-25T06:43:48;100347.03;;;7.38;63.55
19594;BME280;9944;48.240;16.478;2024-01-25T06:48:13;100348.75;;;7.36;63.32
19594;BME280;9944;48.240;16.478;2024-01-25T06:52:37;100359.19;;;7.33;63.12
19594;BME280;9944;48.240;16.478;2024-01-25T06:57:01;100376.66;;;7.31;63.10
19594;BME280;9944;48.240;16.478;2024-01-25T07:01:24;100371.44;;;7.33;63.78
19594;BME280;9944;48.240;16.478;2024-01-25T07:05:52;100365.53;;;7.45;63.99
19594;BME280;9944;48.240;16.478;2024-01-25T07:10:15;100365.47;;;7.41;63.32
19594;BME280;9944;48.240;16.478;2024-01-25T07:14:39;100374.19;;;7.37;63.23
19594;BME280;9944;48.240;16.478;2024-01-25T07:19:03;100389.88;;;7.34;63.49
19594;BME280;9944;48.240;16.478;2024-01-25T07:23:29;100406.47;;;7.33;63.39
19594;BME280;9944;48.240;16.478;2024-01-25T07:27:53;100417.00;;;7.35;63.39
19594;BME280;9944;48.240;16.478;2024-01-25T07:32:18;100418.75;;;7.34;63.24
19594;BME280;9944;48.240;16.478;2024-01-25T07:36:41;100424.91;;;7.36;63.34
19594;BME280;9944;48.240;16.478;2024-01-25T07:41:07;100430.16;;;7.36;62.43
19594;BME280;9944;48.240;16.478;2024-01-25T07:45:31;100443.38;;;7.39;62.19
19594;BME280;9944;48.240;16.478;2024-01-25T07:49:55;100444.34;;;7.45;62.22
19594;BME280;9944;48.240;16.478;2024-01-25T07:54:18;100444.44;;;7.51;60.97
19594;BME280;9944;48.240;16.478;2024-01-25T07:58:43;100441.91;;;7.55;60.08
19594;BME280;9944;48.240;16.478;2024-01-25T08:03:07;100444.59;;;7.57;59.71
19594;BME280;9944;48.240;16.478;2024-01-25T08:07:31;100446.41;;;7.61;59.48
19594;BME280;9944;48.240;16.478;2024-01-25T08:11:55;100454.34;;;7.64;59.04
19594;BME280;9944;48.240;16.478;2024-01-25T08:16:20;100464.84;;;7.64;59.31
19594;BME280;9944;48.240;16.478;2024-01-25T08:20:44;100468.44;;;7.68;58.60
19594;BME280;9944;48.240;16.478;2024-01-25T08:25:08;100464.94;;;7.69;59.00
19594;BME280;9944;48.240;16.478;2024-01-25T08:29:34;100460.66;;;7.74;59.11
19594;BME280;9944;48.240;16.478;2024-01-25T08:33:59;100462.53;;;7.79;57.94
19594;BME280;9944;48.240;16.478;2024-01-25T08:38:23;100460.72;;;7.78;57.66
19594;BME280;9944;48.240;16.478;2024-01-25T08:42:46;100454.63;;;7.79;56.24
19594;BME280;9944;48.240;16.478;2024-01-25T08:47:10;100461.63;;;7.80;56.43
19594;BME280;9944;48.240;16.478;2024-01-25T08:51:36;100456.47;;;7.85;56.92
19594;BME280;9944;48.240;16.478;2024-01-25T09:01:13;100449.53;;;7.89;56.00
19594;BME280;9944;48.240;16.478;2024-01-25T09:05:37;100470.66;;;7.93;55.61
19594;BME280;9944;48.240;16.478;2024-01-25T09:10:06;100471.53;;;7.94;55.62
19594;BME280;9944;48.240;16.478;2024-01-25T09:14:29;100477.69;;;7.96;55.70
19594;BME280;9944;48.240;16.478;2024-01-25T09:18:54;100485.66;;;7.99;55.05
19594;BME280;9944;48.240;16.478;2024-01-25T09:23:18;100511.03;;;7.97;55.60
19594;BME280;9944;48.240;16.478;2024-01-25T09:27:44;100512.81;;;7.99;55.68
19594;BME280;9944;48.240;16.478;2024-01-25T09:32:08;100508.50;;;8.03;55.17
19594;BME280;9944;48.240;16.478;2024-01-25T09:36:32;100505.06;;;8.07;54.13
19594;BME280;9944;48.240;16.478;2024-01-25T09:40:56;100511.31;;;8.12;54.08
19594;BME280;9944;48.240;16.478;2024-01-25T09:45:21;100509.53;;;8.11;52.92
19594;BME280;9944;48.240;16.478;2024-01-25T09:49:47;100522.72;;;8.14;53.69
19594;BME280;9944;48.240;16.478;2024-01-25T09:54:11;100523.69;;;8.20;54.15
19594;BME280;9944;48.240;16.478;2024-01-25T09:58:40;100522.88;;;8.24;54.54
19594;BME280;9944;48.240;16.478;2024-01-25T10:03:06;100535.25;;;8.29;54.22
19594;BME280;9944;48.240;16.478;2024-01-25T10:07:36;100535.25;;;8.29;54.34
19594;BME280;9944;48.240;16.478;2024-01-25T10:12:01;100555.44;;;8.30;53.91
19594;BME280;9944;48.240;16.478;2024-01-25T10:16:38;100563.47;;;8.35;53.72
19594;BME280;9944;48.240;16.478;2024-01-25T10:21:04;100557.28;;;8.34;52.93
19594;BME280;9944;48.240;16.478;2024-01-25T10:25:28;100556.47;;;8.37;52.52
19594;BME280;9944;48.240;16.478;2024-01-25T10:29:52;100546.03;;;8.43;50.36
19594;BME280;9944;48.240;16.478;2024-01-25T10:34:17;100527.72;;;8.48;49.84
19594;BME280;9944;48.240;16.478;2024-01-25T10:38:44;100509.44;;;8.55;49.08
19594;BME280;9944;48.240;16.478;2024-01-25T10:43:10;100509.47;;;8.59;49.38
19594;BME280;9944;48.240;16.478;2024-01-25T10:47:35;100505.09;;;8.59;49.49
19594;BME280;9944;48.240;16.478;2024-01-25T10:51:59;100482.28;;;8.58;49.57
19594;BME280;9944;48.240;16.478;2024-01-25T10:56:25;100486.66;;;8.58;50.01
19594;BME280;9944;48.240;16.478;2024-01-25T11:00:51;100484.06;;;8.59;50.97
19594;BME280;9944;48.240;16.478;2024-01-25T11:05:16;100483.16;;;8.59;51.83
19594;BME280;9944;48.240;16.478;2024-01-25T11:09:41;100501.50;;;8.54;52.61
19594;BME280;9944;48.240;16.478;2024-01-25T11:14:11;100504.19;;;8.55;52.59
19594;BME280;9944;48.240;16.478;2024-01-25T11:18:35;100493.63;;;8.54;53.18
19594;BME280;9944;48.240;16.478;2024-01-25T11:23:01;100488.34;;;8.54;53.59
19594;BME280;9944;48.240;16.478;2024-01-25T11:27:25;100477.88;;;8.59;54.35
19594;BME280;9944;48.240;16.478;2024-01-25T11:31:51;100485.00;;;8.66;54.88
19594;BME280;9944;48.240;16.478;2024-01-25T11:36:15;100466.66;;;8.70;54.74
19594;BME280;9944;48.240;16.478;2024-01-25T11:40:39;100468.47;;;8.73;54.93
19594;BME280;9944;48.240;16.478;2024-01-25T11:45:04;100478.06;;;8.71;54.85
19594;BME280;9944;48.240;16.478;2024-01-25T11:49:29;100468.44;;;8.71;54.92
19594;BME280;9944;48.240;16.478;2024-01-25T11:53:52;100467.84;;;8.92;55.53
19594;BME280;9944;48.240;16.478;2024-01-25T11:58:16;100457.53;;;9.08;55.25
19594;BME280;9944;48.240;16.478;2024-01-25T12:02:40;100460.16;;;9.06;54.96
19594;BME280;9944;48.240;16.478;2024-01-25T12:07:06;100456.56;;;9.01;55.28
19594;BME280;9944;48.240;16.478;2024-01-25T12:11:30;100455.53;;;8.90;55.18
19594;BME280;9944;48.240;16.478;2024-01-25T12:15:54;100447.66;;;8.91;55.69
19594;BME280;9944;48.240;16.478;2024-01-25T12:20:18;100442.34;;;8.87;55.23
19594;BME280;9944;48.240;16.478;2024-01-25T12:24:43;100432.63;;;8.84;55.58
19594;BME280;9944;48.240;16.478;2024-01-25T12:29:21;100430.03;;;8.87;54.89
19594;BME280;9944;48.240;16.478;2024-01-25T12:33:45;100435.25;;;8.83;55.19
19594;BME280;9944;48.240;16.478;2024-01-25T12:38:10;100430.84;;;8.80;54.98
19594;BME280;9944;48.240;16.478;2024-01-25T12:42:35;100431.78;;;8.85;55.72
19594;BME280;9944;48.240;16.478;2024-01-25T12:46:58;100434.53;;;8.95;55.27
19594;BME280;9944;48.240;16.478;2024-01-25T12:51:25;100445.91;;;8.90;54.35
19594;BME280;9944;48.240;16.478;2024-01-25T12:55:49;100420.34;;;8.83;54.42
19594;BME280;9944;48.240;16.478;2024-01-25T13:00:15;100416.75;;;8.77;54.13
19594;BME280;9944;48.240;16.478;2024-01-25T13:04:39;100421.03;;;8.70;54.00
19594;BME280;9944;48.240;16.478;2024-01-25T13:09:03;100418.31;;;8.64;54.30
19594;BME280;9944;48.240;16.478;2024-01-25T13:13:26;100422.69;;;8.63;53.59
19594;BME280;9944;48.240;16.478;2024-01-25T13:17:51;100431.44;;;8.62;54.21
19594;BME280;9944;48.240;16.478;2024-01-25T13:22:14;100434.88;;;8.57;54.19
19594;BME280;9944;48.240;16.478;2024-01-25T13:26:39;100440.09;;;8.53;54.20
19594;BME280;9944;48.240;16.478;2024-01-25T13:31:03;100443.66;;;8.57;54.49
19594;BME280;9944;48.240;16.478;2024-01-25T13:35:28;100449.00;;;8.63;53.93
19594;BME280;9944;48.240;16.478;2024-01-25T13:39:52;100441.97;;;8.62;54.06
19594;BME280;9944;48.240;16.478;2024-01-25T13:44:15;100430.63;;;8.65;54.17
19594;BME280;9944;48.240;16.478;2024-01-25T13:48:38;100435.03;;;8.69;54.36
19594;BME280;9944;48.240;16.478;2024-01-25T13:53:04;100436.81;;;8.68;53.53
19594;BME280;9944;48.240;16.478;2024-01-25T13:57:27;100441.22;;;8.69;53.84
19594;BME280;9944;48.240;16.478;2024-01-25T14:01:51;100433.31;;;8.69;53.11
19594;BME280;9944;48.240;16.478;2024-01-25T14:06:14;100437.69;;;8.69;53.33
19594;BME280;9944;48.240;16.478;2024-01-25T14:10:40;100435.00;;;8.66;52.85
19594;BME280;9944;48.240;16.478;2024-01-25T14:15:04;100437.63;;;8.63;53.04
19594;BME280;9944;48.240;16.478;2024-01-25T14:19:28;100432.34;;;8.63;52.78
19594;BME280;9944;48.240;16.478;2024-01-25T14:23:52;100441.09;;;8.62;52.37
19594;BME280;9944;48.240;16.478;2024-01-25T14:28:17;100432.28;;;8.60;52.52
19594;BME280;9944;48.240;16.478;2024-01-25T14:32:41;100441.91;;;8.56;52.49
19594;BME280;9944;48.240;16.478;2024-01-25T14:37:05;100451.47;;;8.51;51.96
19594;BME280;9944;48.240;16.478;2024-01-25T14:41:29;100433.06;;;8.52;51.74
19594;BME280;9944;48.240;16.478;2024-01-25T14:45:56;100441.75;;;8.48;51.78
19594;BME280;9944;48.240;16.478;2024-01-25T14:50:19;100435.53;;;8.42;51.94
19594;BME280;9944;48.240;16.478;2024-01-25T14:54:44;100440.72;;;8.37;51.91
19594;BME280;9944;48.240;16.478;2024-01-25T14:59:07;100452.09;;;8.36;51.90
19594;BME280;9944;48.240;16.478;2024-01-25T15:03:32;100481.78;;;8.30;52.39
19594;BME280;9944;48.240;16.478;2024-01-25T15:07:56;100475.66;;;8.30;52.53
19594;BME280;9944;48.240;16.478;2024-01-25T15:12:20;100480.88;;;8.28;52.48
19594;BME280;9944;48.240;16.478;2024-01-25T15:16:43;100487.00;;;8.27;52.69
19594;BME280;9944;48.240;16.478;2024-01-25T15:21:08;100500.13;;;8.26;52.29
19594;BME280;9944;48.240;16.478;2024-01-25T15:25:31;100500.13;;;8.26;52.30
19594;BME280;9944;48.240;16.478;2024-01-25T15:29:55;100502.66;;;8.20;52.48
19594;BME280;9944;48.240;16.478;2024-01-25T15:34:18;100505.22;;;8.16;52.32
19594;BME280;9944;48.240;16.478;2024-01-25T15:38:44;100510.44;;;8.13;52.10
19594;BME280;9944;48.240;16.478;2024-01-25T15:43:08;100512.16;;;8.11;52.08
19594;BME280;9944;48.240;16.478;2024-01-25T15:47:32;100512.94;;;8.06;52.36
19594;BME280;9944;48.240;16.478;2024-01-25T15:51:55;100517.25;;;8.02;51.82
19594;BME280;9944;48.240;16.478;2024-01-25T15:56:20;100523.31;;;7.99;52.10
19594;BME280;9944;48.240;16.478;2024-01-25T16:00:44;100526.81;;;7.97;51.99
19594;BME280;9944;48.240;16.478;2024-01-25T16:05:08;100524.94;;;7.93;52.26
19594;BME280;9944;48.240;16.478;2024-01-25T16:09:32;100520.56;;;7.92;52.28
19594;BME280;9944;48.240;16.478;2024-01-25T16:13:57;100528.47;;;7.92;52.49
19594;BME280;9944;48.240;16.478;2024-01-25T16:18:20;100530.97;;;7.87;51.77
19594;BME280;9944;48.240;16.478;2024-01-25T16:22:44;100530.91;;;7.83;52.14
19594;BME280;9944;48.240;16.478;2024-01-25T16:27:07;100529.94;;;7.77;52.45
19594;BME280;9944;48.240;16.478;2024-01-25T16:31:32;100532.53;;;7.76;52.33
19594;BME280;9944;48.240;16.478;2024-01-25T16:35:56;100543.91;;;7.75;52.08
19594;BME280;9944;48.240;16.478;2024-01-25T16:40:21;100545.56;;;7.71;52.37
19594;BME280;9944;48.240;16.478;2024-01-25T16:44:45;100535.91;;;7.70;52.16
19594;BME280;9944;48.240;16.478;2024-01-25T16:55:17;100559.34;;;7.59;52.03
19594;BME280;9944;48.240;16.478;2024-01-25T16:59:40;100561.09;;;7.59;51.78
19594;BME280;9944;48.240;16.478;2024-01-25T17:04:04;100558.47;;;7.59;51.80
19594;BME280;9944;48.240;16.478;2024-01-25T17:08:28;100558.31;;;7.53;51.86
19594;BME280;9944;48.240;16.478;2024-01-25T17:17:46;100559.06;;;7.46;51.78
19594;BME280;9944;48.240;16.478;2024-01-25T17:22:09;100560.69;;;7.40;52.39
19594;BME280;9944;48.240;16.478;2024-01-25T17:26:33;100580.72;;;7.35;52.06
19594;BME280;9944;48.240;16.478;2024-01-25T17:30:58;100581.44;;;7.28;52.02
19594;BME280;9944;48.240;16.478;2024-01-25T17:35:25;100581.38;;;7.23;52.12
19594;BME280;9944;48.240;16.478;2024-01-25T17:39:48;100593.66;;;7.26;52.32
19594;BME280;9944;48.240;16.478;2024-01-25T17:44:12;100610.16;;;7.20;51.92
19594;BME280;9944;48.240;16.478;2024-01-25T17:48:37;100622.34;;;7.17;52.25
19594;BME280;9944;48.240;16.478;2024-01-25T17:53:02;100618.78;;;7.15;52.13
19594;BME280;9944;48.240;16.478;2024-01-25T17:57:25;100625.72;;;7.13;51.66
19594;BME280;9944;48.240;16.478;2024-01-25T18:01:49;100624.81;;;7.11;52.10
19594;BME280;9944;48.240;16.478;2024-01-25T18:06:13;100611.59;;;7.08;52.26
19594;BME280;9944;48.240;16.478;2024-01-25T18:10:37;100612.38;;;7.03;51.87
19594;BME280;9944;48.240;16.478;2024-01-25T18:15:00;100605.41;;;7.04;51.90
19594;BME280;9944;48.240;16.478;2024-01-25T18:19:24;100617.59;;;7.02;51.73
19594;BME280;9944;48.240;16.478;2024-01-25T18:23:50;100606.06;;;6.95;51.87
19594;BME280;9944;48.240;16.478;2024-01-25T18:28:13;100616.53;;;6.94;51.92
19594;BME280;9944;48.240;16.478;2024-01-25T18:32:38;100605.00;;;6.87;51.82
19594;BME280;9944;48.240;16.478;2024-01-25T18:37:02;100618.97;;;6.86;52.09
19594;BME280;9944;48.240;16.478;2024-01-25T18:41:27;100630.25;;;6.82;52.41
19594;BME280;9944;48.240;16.478;2024-01-25T18:45:51;100626.63;;;6.77;52.11
19594;BME280;9944;48.240;16.478;2024-01-25T18:50:15;100623.00;;;6.72;52.30
19594;BME280;9944;48.240;16.478;2024-01-25T18:54:39;100623.72;;;6.66;52.36
19594;BME280;9944;48.240;16.478;2024-01-25T18:59:04;100629.78;;;6.63;52.27
19594;BME280;9944;48.240;16.478;2024-01-25T19:03:29;100633.19;;;6.59;52.65
19594;BME280;9944;48.240;16.478;2024-01-25T19:07:53;100635.69;;;6.55;53.02
19594;BME280;9944;48.240;16.478;2024-01-25T19:12:16;100627.56;;;6.45;52.98
19594;BME280;9944;48.240;16.478;2024-01-25T19:16:41;100631.00;;;6.43;53.21
19594;BME280;9944;48.240;16.478;2024-01-25T19:21:05;100643.06;;;6.38;53.23
19594;BME280;9944;48.240;16.478;2024-01-25T19:25:29;100646.44;;;6.34;53.21
19594;BME280;9944;48.240;16.478;2024-01-25T19:29:53;100649.06;;;6.34;53.45
19594;BME280;9944;48.240;16.478;2024-01-25T19:34:17;100658.53;;;6.28;53.57
19594;BME280;9944;48.240;16.478;2024-01-25T19:38:43;100658.41;;;6.24;53.75
19594;BME280;9944;48.240;16.478;2024-01-25T19:43:06;100659.19;;;6.20;53.83
19594;BME280;9944;48.240;16.478;2024-01-25T19:52:57;100667.81;;;6.17;53.95
19594;BME280;9944;48.240;16.478;2024-01-25T19:57:21;100666.81;;;6.12;54.44
19594;BME280;9944;48.240;16.478;2024-01-25T20:01:45;100677.28;;;6.12;54.45
19594;BME280;9944;48.240;16.478;2024-01-25T20:06:12;100666.75;;;6.09;54.46
19594;BME280;9944;48.240;16.478;2024-01-25T20:10:37;100685.84;;;6.05;54.60
19594;BME280;9944;48.240;16.478;2024-01-25T20:15:00;100693.59;;;6.02;54.66
19594;BME280;9944;48.240;16.478;2024-01-25T20:19:24;100687.44;;;6.00;54.78
19594;BME280;9944;48.240;16.478;2024-01-25T20:23:48;100683.78;;;5.95;54.72
19594;BME280;9944;48.240;16.478;2024-01-25T20:28:13;100674.13;;;5.92;54.91
19594;BME280;9944;48.240;16.478;2024-01-25T20:32:36;100675.72;;;5.87;55.07
19594;BME280;9944;48.240;16.478;2024-01-25T20:37:00;100674.72;;;5.83;55.19
19594;BME280;9944;48.240;16.478;2024-01-25T20:41:23;100678.09;;;5.79;55.28
19594;BME280;9944;48.240;16.478;2024-01-25T20:45:48;100684.25;;;5.80;55.29
19594;BME280;9944;48.240;16.478;2024-01-25T20:50:13;100682.34;;;5.76;55.43
19594;BME280;9944;48.240;16.478;2024-01-25T20:54:47;100679.69;;;5.74;55.53
19594;BME280;9944;48.240;16.478;2024-01-25T20:59:12;100690.16;;;5.74;55.55
19594;BME280;9944;48.240;16.478;2024-01-25T21:03:37;100685.72;;;5.71;55.66
19594;BME280;9944;48.240;16.478;2024-01-25T21:08:01;100691.75;;;5.69;55.60
19594;BME280;9944;48.240;16.478;2024-01-25T21:12:26;100690.09;;;5.71;55.86
19594;BME280;9944;48.240;16.478;2024-01-25T21:16:49;100691.84;;;5.72;55.79
19594;BME280;9944;48.240;16.478;2024-01-25T21:21:14;100684.84;;;5.71;56.00
19594;BME280;9944;48.240;16.478;2024-01-25T21:25:39;100690.97;;;5.71;55.99
19594;BME280;9944;48.240;16.478;2024-01-25T21:30:03;100697.91;;;5.69;55.94
19594;BME280;9944;48.240;16.478;2024-01-25T21:34:26;100707.47;;;5.69;55.91
19594;BME280;9944;48.240;16.478;2024-01-25T21:38:51;100703.13;;;5.69;55.79
19594;BME280;9944;48.240;16.478;2024-01-25T21:43:15;100724.16;;;5.71;55.84
19594;BME280;9944;48.240;16.478;2024-01-25T21:47:39;100717.06;;;5.68;55.90
19594;BME280;9944;48.240;16.478;2024-01-25T21:52:03;100710.94;;;5.68;55.98
19594;BME280;9944;48.240;16.478;2024-01-25T21:56:29;100710.00;;;5.66;56.14
19594;BME280;9944;48.240;16.478;2024-01-25T22:00:53;100696.81;;;5.63;55.97
19594;BME280;9944;48.240;16.478;2024-01-25T22:05:17;100695.03;;;5.62;56.06
19594;BME280;9944;48.240;16.478;2024-01-25T22:09:41;100704.53;;;5.58;56.23
19594;BME280;9944;48.240;16.478;2024-01-25T22:14:07;100691.38;;;5.57;56.37
19594;BME280;9944;48.240;16.478;2024-01-25T22:18:30;100699.19;;;5.55;56.15
19594;BME280;9944;48.240;16.478;2024-01-25T22:22:54;100705.22;;;5.52;56.54
19594;BME280;9944;48.240;16.478;2024-01-25T22:27:17;100705.22;;;5.52;56.22
19594;BME280;9944;48.240;16.478;2024-01-25T22:31:42;100713.03;;;5.51;56.16
19594;BME280;9944;48.240;16.478;2024-01-25T22:36:09;100718.22;;;5.49;56.28
19594;BME280;9944;48.240;16.478;2024-01-25T22:40:33;100720.00;;;5.50;56.21
19594;BME280;9944;48.240;16.478;2024-01-25T22:44:56;100713.84;;;5.48;56.41
19594;BME280;9944;48.240;16.478;2024-01-25T22:49:21;100718.97;;;5.45;56.40
19594;BME280;9944;48.240;16.478;2024-01-25T22:53:45;100713.72;;;5.45;56.42
19594;BME280;9944;48.240;16.478;2024-01-25T22:58:09;100724.91;;;5.40;56.37
19594;BME280;9944;48.240;16.478;2024-01-25T23:02:32;100721.44;;;5.41;56.21
19594;BME280;9944;48.240;16.478;2024-01-25T23:06:57;100729.19;;;5.38;56.17
19594;BME280;9944;48.240;16.478;2024-01-25T23:11:21;100726.44;;;5.33;56.29
19594;BME280;9944;48.240;16.478;2024-01-25T23:15:45;100731.56;;;5.30;56.58
19594;BME280;9944;48.240;16.478;2024-01-25T23:20:08;100729.72;;;5.27;56.55
19594;BME280;9944;48.240;16.478;2024-01-25T23:24:34;100734.94;;;5.27;56.39
19594;BME280;9944;48.240;16.478;2024-01-25T23:28:57;100733.97;;;5.24;56.46
19594;BME280;9944;48.240;16.478;2024-01-25T23:33:21;100732.31;;;5.26;56.64
19594;BME280;9944;48.240;16.478;2024-01-25T23:37:45;100726.09;;;5.24;56.59
19594;BME280;9944;48.240;16.478;2024-01-25T23:42:09;100721.63;;;5.20;56.75